Time;durP1;ratioP1;P1;durP2;ratioP2;P2;SDS_P1;SDS_P2;PMS_P1;PMS_P2;Temp;Humidity;BMP_temperature;BMP_pressure;BME280_temperature;BME280_humidity;BME280_pressure;Samples;Min_cycle;Max_cycle;Signal;HPM_P1;HPM_P2
2023/03/04 00:01:43;;;;;;;36.30;27.80;;;;;;;1.01;73.48;100411.17;113528;1233;21933;-76
2023/03/04 00:04:27;;;;;;;34.90;27.80;;;;;;;1.03;73.42;100413.75;113502;1233;23693;-75
2023/03/04 00:06:57;;;;;;;32.30;26.90;;;;;;;1.06;73.44;100412.05;113262;1233;21951;-75
2023/03/04 00:09:34;;;;;;;33.60;27.20;;;;;;;1.10;73.38;100407.95;113465;1233;21961;-76
2023/03/04 00:12:07;;;;;;;33.50;26.10;;;;;;;1.11;73.31;100406.75;113534;1233;21958;-76
2023/03/04 00:14:36;;;;;;;32.00;26.60;;;;;;;1.13;73.41;100405.20;112974;1240;22705;-77
2023/03/04 00:17:11;;;;;;;35.00;26.60;;;;;;;1.16;73.40;100397.33;112866;1240;23962;-76
2023/03/04 00:19:42;;;;;;;39.10;29.30;;;;;;;1.17;73.33;100393.39;112098;1246;23697;-77
2023/03/04 00:22:14;;;;;;;36.10;29.00;;;;;;;1.18;73.32;100390.30;112150;1242;23019;-76
2023/03/04 00:24:48;;;;;;;35.90;28.50;;;;;;;1.18;73.43;100389.44;111390;1251;21974;-76
2023/03/04 00:27:25;;;;;;;32.40;26.70;;;;;;;1.19;73.47;100386.70;111397;1251;23626;-75
2023/03/04 00:29:59;;;;;;;35.90;28.70;;;;;;;1.20;73.32;100382.42;111102;1255;21980;-78
2023/03/04 00:32:29;;;;;;;37.80;30.70;;;;;;;1.22;73.34;100379.34;111280;1249;22980;-77
2023/03/04 00:34:57;;;;;;;40.00;30.40;;;;;;;1.22;73.23;100364.59;111105;1255;23817;-76
2023/03/04 00:37:26;;;;;;;37.70;29.90;;;;;;;1.23;73.36;100361.16;110975;1252;23686;-75
2023/03/04 00:40:00;;;;;;;35.50;30.00;;;;;;;1.25;73.40;100362.18;111389;1252;23626;-76
2023/03/04 00:42:33;;;;;;;37.00;30.50;;;;;;;1.27;73.41;100358.77;111216;1251;23704;-76
2023/03/04 00:45:03;;;;;;;40.40;30.60;;;;;;;1.29;73.37;100358.94;110921;1259;22484;-76
2023/03/04 00:47:37;;;;;;;37.50;29.20;;;;;;;1.30;73.31;100354.48;110355;1260;21982;-75
2023/03/04 00:50:07;;;;;;;37.50;29.80;;;;;;;1.33;73.31;100351.91;110748;1259;21986;-77
2023/03/04 00:52:41;;;;;;;37.10;30.90;;;;;;;1.36;73.28;100352.23;110792;1260;22035;-76
2023/03/04 00:55:12;;;;;;;35.70;31.30;;;;;;;1.39;73.32;100350.53;110328;1264;21986;-78
2023/03/04 00:57:45;;;;;;;35.80;30.50;;;;;;;1.43;73.04;100347.79;110326;1264;22006;-77
2023/03/04 01:00:19;;;;;;;42.40;31.70;;;;;;;1.46;73.11;100346.23;110730;1253;21982;-76
2023/03/04 01:02:55;;;;;;;35.60;29.60;;;;;;;1.49;73.07;100345.55;111606;1247;22021;-77
2023/03/04 01:05:33;;;;;;;40.20;29.60;;;;;;;1.52;73.04;100349.48;111851;1244;21962;-76
2023/03/04 01:08:04;;;;;;;40.60;31.30;;;;;;;1.54;72.94;100345.02;111965;1247;21968;-76
2023/03/04 01:10:33;;;;;;;38.30;31.50;;;;;;;1.57;72.97;100343.14;111985;1248;21969;-77
2023/03/04 01:13:11;;;;;;;37.50;29.70;;;;;;;1.60;72.77;100340.21;112100;1243;22321;-75
2023/03/04 01:15:45;;;;;;;38.10;29.20;;;;;;;1.63;72.74;100330.96;111680;1248;23590;-76
2023/03/04 01:18:16;;;;;;;40.00;31.50;;;;;;;1.65;72.58;100330.79;111715;1248;22403;-76
2023/03/04 01:20:55;;;;;;;37.60;29.00;;;;;;;1.67;72.59;100326.48;111764;1248;23728;-77
2023/03/04 01:23:30;;;;;;;35.70;29.70;;;;;;;1.70;72.49;100328.72;111485;1249;22026;-76
2023/03/04 01:25:59;;;;;;;33.80;27.90;;;;;;;1.73;72.40;100325.28;111868;1245;21973;-76
2023/03/04 01:28:34;;;;;;;34.50;29.20;;;;;;;1.76;72.24;100325.27;112081;1245;23635;-76
2023/03/04 01:31:03;;;;;;;34.40;29.10;;;;;;;1.77;72.23;100316.17;112271;1245;23571;-76
2023/03/04 01:33:35;;;;;;;32.00;28.30;;;;;;;1.78;72.12;100316.17;112315;1239;22211;-77
2023/03/04 01:36:06;;;;;;;33.50;26.40;;;;;;;1.80;72.09;100312.90;113171;1239;23037;-76
2023/03/04 01:38:38;;;;;;;32.80;26.40;;;;;;;1.83;71.95;100311.35;112375;1244;21969;-76
2023/03/04 01:41:16;;;;;;;34.00;26.90;;;;;;;1.83;71.88;100307.75;112074;1244;22040;-76
2023/03/04 01:43:55;;;;;;;33.30;27.50;;;;;;;1.84;71.72;100303.11;111994;1244;22044;-76
2023/03/04 01:46:36;;;;;;;29.80;25.80;;;;;;;1.85;71.71;100301.75;112294;1244;21964;-78
2023/03/04 01:49:08;;;;;;;28.10;24.90;;;;;;;1.83;71.61;100301.06;112335;1239;21942;-78
2023/03/04 01:51:47;;;;;;;32.20;27.60;;;;;;;1.84;71.64;100295.73;112865;1239;23586;-75
2023/03/04 01:54:20;;;;;;;28.90;24.30;;;;;;;1.86;71.51;100290.23;112772;1239;21951;-75
2023/03/04 01:56:59;;;;;;;29.90;24.60;;;;;;;1.85;71.36;100287.33;113098;1233;22058;-76
2023/03/04 01:59:30;;;;;;;31.60;25.20;;;;;;;1.83;71.30;100285.10;113515;1233;21944;-76
2023/03/04 02:02:01;;;;;;;;;;;;;;;1.83;71.32;100281.84;113556;1232;21944;-76
2023/03/04 02:04:36;;;;;;;32.10;24.50;;;;;;;1.77;71.52;100276.70;113597;1233;21940;-76
2023/03/04 02:07:14;;;;;;;29.90;25.50;;;;;;;1.77;71.38;100276.90;112820;1239;22963;-77
2023/03/04 02:09:47;;;;;;;28.40;24.00;;;;;;;1.76;71.20;100272.27;112838;1238;22026;-75
2023/03/04 02:12:24;;;;;;;25.80;23.10;;;;;;;1.77;71.25;100271.74;112904;1239;21954;-74
2023/03/04 02:15:16;;;;;;;30.90;24.60;;;;;;;1.80;71.29;100269.16;112799;1239;21964;-75
2023/03/04 02:17:57;;;;;;;28.40;24.80;;;;;;;1.81;71.13;100266.74;112296;1245;22060;-76
2023/03/04 02:21:06;;;;;;;28.60;23.60;;;;;;;1.84;71.07;100260.56;112056;1245;23626;-75
2023/03/04 02:24:04;;;;;;;30.60;24.70;;;;;;;1.86;70.98;100256.27;111431;1244;23046;-77
2023/03/04 02:26:45;;;;;;;25.50;22.70;;;;;;;1.86;70.91;100252.66;112141;1244;22265;-77
2023/03/04 02:29:19;;;;;;;28.80;22.80;;;;;;;1.88;70.88;100250.23;111447;1249;21985;-75
2023/03/04 02:31:53;;;;;;;26.50;22.10;;;;;;;1.88;70.72;100244.41;111303;1252;22358;-76
2023/03/04 02:34:28;;;;;;;25.20;21.80;;;;;;;1.91;70.63;100238.73;111316;1252;23597;-75
2023/03/04 02:36:57;;;;;;;26.20;21.40;;;;;;;1.90;70.59;100232.55;111493;1249;23021;-76
2023/03/04 02:39:41;;;;;;;28.50;21.90;;;;;;;1.90;70.53;100227.59;111319;1253;23604;-76
2023/03/04 02:42:12;;;;;;;25.20;21.00;;;;;;;1.90;70.39;100225.87;111083;1253;21948;-76
2023/03/04 02:47:36;;;;;;;26.40;21.10;;;;;;;1.91;70.35;100222.44;111511;1249;22050;-75
2023/03/04 02:50:10;;;;;;;28.50;22.50;;;;;;;1.92;70.21;100216.60;111655;1249;21974;-76
2023/03/04 02:52:49;;;;;;;24.80;22.00;;;;;;;1.91;70.09;100208.70;111751;1249;21983;-76
2023/03/04 02:55:27;;;;;;;27.80;23.10;;;;;;;1.88;70.09;100202.02;111270;1255;21965;-77
2023/03/04 02:58:14;;;;;;;25.40;20.90;;;;;;;1.85;70.07;100195.87;111793;1247;22062;-76
2023/03/04 03:00:50;;;;;;;26.30;21.70;;;;;;;1.82;70.00;100184.55;112385;1239;22717;-77
2023/03/04 03:03:22;;;;;;;26.40;21.50;;;;;;;1.81;70.02;100175.28;110375;1245;2154972;-75
2023/03/04 03:05:53;;;;;;;28.10;22.20;;;;;;;1.82;69.92;100168.77;112034;1245;23697;-76
2023/03/04 03:08:32;;;;;;;27.10;23.60;;;;;;;1.80;69.86;100163.11;111793;1248;21958;-76
2023/03/04 03:11:02;;;;;;;27.50;23.90;;;;;;;1.79;69.76;100163.98;111854;1248;22537;-76
2023/03/04 03:13:42;;;;;;;25.00;21.40;;;;;;;1.76;69.76;100155.93;111303;1244;23079;-75
2023/03/04 03:16:11;;;;;;;26.70;23.10;;;;;;;1.75;69.83;100153.52;111242;1255;21972;-75
2023/03/04 03:18:42;;;;;;;26.00;22.10;;;;;;;1.76;69.74;100151.98;111314;1255;23032;-78
2023/03/04 03:21:13;;;;;;;24.10;20.10;;;;;;;1.76;69.65;100148.20;111521;1248;22006;-76
2023/03/04 03:23:47;;;;;;;23.50;20.10;;;;;;;1.77;69.68;100147.69;111890;1249;22029;-76
2023/03/04 03:26:20;;;;;;;24.50;21.50;;;;;;;1.78;69.71;100142.71;111668;1247;23724;-75
2023/03/04 03:28:49;;;;;;;25.70;21.40;;;;;;;1.79;69.65;100138.58;111871;1245;22053;-76
2023/03/04 03:31:23;;;;;;;25.70;21.50;;;;;;;1.78;69.44;100138.41;111955;1239;23331;-77
2023/03/04 03:33:57;;;;;;;26.40;21.40;;;;;;;1.78;69.50;100132.08;112955;1238;21959;-78
2023/03/04 03:36:28;;;;;;;26.70;21.20;;;;;;;1.78;69.47;100131.56;112867;1239;21994;-76
2023/03/04 03:38:58;;;;;;;26.10;21.10;;;;;;;1.79;69.42;100124.52;112370;1241;22966;-76
2023/03/04 03:41:27;;;;;;;26.90;22.40;;;;;;;1.79;69.35;100122.98;112101;1245;21993;-76
2023/03/04 03:43:56;;;;;;;23.70;20.30;;;;;;;1.77;69.26;100118.52;112014;1245;21973;-76
2023/03/04 03:46:35;;;;;;;26.40;21.80;;;;;;;1.76;69.19;100119.21;112057;1245;21960;-77
2023/03/04 03:49:16;;;;;;;29.10;23.00;;;;;;;1.74;69.24;100125.58;112220;1238;21964;-76
2023/03/04 03:51:48;;;;;;;26.80;22.40;;;;;;;1.71;69.19;100125.58;112090;1245;21952;-76
2023/03/04 03:54:29;;;;;;;26.50;23.50;;;;;;;1.70;69.32;100132.11;112130;1245;21967;-77
2023/03/04 03:57:10;;;;;;;25.20;22.00;;;;;;;1.70;69.27;100129.71;112230;1239;22079;-76
2023/03/04 03:59:40;;;;;;;26.80;22.30;;;;;;;1.69;69.41;100133.65;113177;1233;21954;-76
2023/03/04 04:02:11;;;;;;;25.80;21.10;;;;;;;1.72;69.34;100134.84;112847;1239;22828;-74
2023/03/04 04:04:39;;;;;;;30.10;23.00;;;;;;;1.71;69.26;100140.16;112888;1239;22385;-77
2023/03/04 04:07:07;;;;;;;29.20;23.50;;;;;;;1.71;69.26;100148.58;112709;1239;24558;-77
2023/03/04 04:09:35;;;;;;;26.60;23.70;;;;;;;1.72;69.25;100148.23;112749;1239;23587;-75
2023/03/04 04:12:06;;;;;;;30.40;23.90;;;;;;;1.74;69.24;100150.27;112800;1239;21962;-76
2023/03/04 04:14:35;;;;;;;30.60;24.90;;;;;;;1.74;68.96;100148.20;112806;1238;21968;-75
2023/03/04 04:17:03;;;;;;;29.10;24.50;;;;;;;1.74;69.01;100155.08;112939;1239;23650;-76
2023/03/04 04:19:34;;;;;;;33.20;24.90;;;;;;;1.75;68.96;100156.45;113200;1233;23018;-75
2023/03/04 04:22:19;;;;;;;31.30;26.60;;;;;;;1.77;68.93;100150.78;113593;1233;22394;-75
2023/03/04 04:24:54;;;;;;;29.80;23.60;;;;;;;1.76;68.83;100153.88;113503;1233;23686;-78
2023/03/04 04:27:28;;;;;;;33.10;28.10;;;;;;;1.74;68.69;100150.63;112384;1241;22022;-77
2023/03/04 04:29:59;;;;;;;31.70;26.30;;;;;;;1.71;68.59;100152.34;112381;1241;21959;-77
2023/03/04 04:32:30;;;;;;;31.80;26.30;;;;;;;1.70;68.62;100147.20;112950;1241;23581;-77
2023/03/04 04:34:59;;;;;;;36.70;28.40;;;;;;;1.71;68.54;100142.23;112740;1241;23636;-75
2023/03/04 04:37:28;;;;;;;32.60;27.70;;;;;;;1.72;68.52;100143.60;112794;1241;21949;-75
2023/03/04 04:40:00;;;;;;;35.30;29.20;;;;;;;1.73;68.40;100140.84;112617;1241;21986;-75
2023/03/04 04:42:38;;;;;;;34.90;29.70;;;;;;;1.74;68.42;100144.97;112953;1241;21971;-77
2023/03/04 04:45:14;;;;;;;35.20;29.30;;;;;;;1.75;68.38;100141.86;112576;1232;21984;-75
2023/03/04 04:47:54;;;;;;;36.50;29.10;;;;;;;1.74;68.27;100140.33;113470;1232;21921;-76
2023/03/04 04:50:24;;;;;;;35.20;29.00;;;;;;;1.76;68.26;100143.74;113302;1232;21946;-75
2023/03/04 04:52:53;;;;;;;37.90;30.60;;;;;;;1.80;68.48;100149.21;113079;1239;21948;-75
2023/03/04 04:55:27;;;;;;;34.40;29.80;;;;;;;1.90;68.55;100144.70;112919;1239;21966;-74
2023/03/04 04:58:00;;;;;;;37.00;32.70;;;;;;;1.98;68.53;100141.57;112879;1239;21952;-75
2023/03/04 05:00:30;;;;;;;36.90;31.30;;;;;;;2.02;68.16;100134.85;112728;1239;21979;-75
2023/03/04 05:03:02;;;;;;;36.60;31.50;;;;;;;1.99;67.77;100126.28;112786;1239;23576;-76
2023/03/04 05:05:35;;;;;;;51.40;39.10;;;;;;;1.93;67.66;100124.78;113092;1237;21984;-76
2023/03/04 05:08:10;;;;;;;39.70;31.70;;;;;;;1.88;67.59;100130.64;112831;1237;23026;-77
2023/03/04 05:10:38;;;;;;;34.90;30.40;;;;;;;1.84;67.52;100128.08;112722;1232;21946;-77
2023/03/04 05:13:07;;;;;;;36.60;29.60;;;;;;;1.82;67.56;100124.84;113568;1233;21953;-75
2023/03/04 05:15:38;;;;;;;35.90;29.80;;;;;;;1.82;67.58;100122.09;113166;1237;21954;-76
2023/03/04 05:18:11;;;;;;;36.00;27.40;;;;;;;1.83;67.55;100122.27;113026;1238;22195;-75
2023/03/04 05:20:43;;;;;;;34.90;28.50;;;;;;;1.84;67.49;100120.89;112817;1238;22019;-75
2023/03/04 05:23:16;;;;;;;33.30;27.30;;;;;;;1.85;67.52;100115.91;112899;1238;22108;-76
2023/03/04 05:26:06;;;;;;;33.60;28.50;;;;;;;1.84;67.44;100112.14;113009;1239;22050;-77
2023/03/04 05:28:38;;;;;;;35.50;29.70;;;;;;;1.84;67.47;100120.02;112145;1244;22028;-75
2023/03/04 05:31:15;;;;;;;34.60;27.40;;;;;;;1.86;67.45;100125.17;111837;1249;22074;-75
2023/03/04 05:33:55;;;;;;;34.90;27.90;;;;;;;1.87;67.50;100122.94;111614;1250;22716;-76
2023/03/04 05:36:33;;;;;;;36.00;26.30;;;;;;;1.88;67.51;100118.63;111149;1255;21905;-77
2023/03/04 05:39:18;;;;;;;30.80;26.10;;;;;;;1.87;67.35;100121.03;111136;1255;21973;-79
2023/03/04 05:41:56;;;;;;;30.60;26.20;;;;;;;1.87;67.37;100120.01;111506;1251;21977;-75
2023/03/04 05:44:27;;;;;;;34.40;27.50;;;;;;;1.89;67.50;100120.34;111136;1255;22721;-76
2023/03/04 05:47:02;;;;;;;33.30;25.80;;;;;;;1.91;67.43;100120.17;111303;1255;23736;-75
2023/03/04 05:49:30;;;;;;;32.60;28.00;;;;;;;1.92;67.51;100121.35;111364;1243;23031;-76
2023/03/04 05:52:04;;;;;;;31.20;26.10;;;;;;;1.94;67.38;100118.76;111433;1250;21974;-75
2023/03/04 05:54:53;;;;;;;31.80;25.40;;;;;;;1.95;67.56;100119.27;112709;1238;21959;-75
2023/03/04 05:57:28;;;;;;;35.00;26.80;;;;;;;1.98;67.49;100118.91;113082;1238;23077;-76
2023/03/04 06:00:04;;;;;;;32.90;25.10;;;;;;;2.02;67.47;100116.66;112334;1244;21966;-75
2023/03/04 06:02:46;;;;;;;34.20;25.90;;;;;;;2.04;67.42;100113.02;112546;1241;23008;-75
2023/03/04 06:05:18;;;;;;;31.90;25.30;;;;;;;2.03;67.40;100111.50;112441;1241;21967;-75
2023/03/04 06:07:46;;;;;;;31.80;24.80;;;;;;;2.03;67.43;100111.84;112604;1241;21973;-75
2023/03/04 06:10:18;;;;;;;30.80;24.30;;;;;;;2.01;67.29;100110.66;112831;1240;22098;-75
2023/03/04 06:12:47;;;;;;;35.40;25.80;;;;;;;1.99;67.31;100113.94;112592;1241;21945;-75
2023/03/04 06:15:16;;;;;;;32.30;25.50;;;;;;;1.98;67.41;100111.18;112543;1241;21967;-75
2023/03/04 06:17:44;;;;;;;30.00;23.90;;;;;;;1.99;67.42;100108.44;112193;1241;22045;-74
2023/03/04 06:20:12;;;;;;;31.10;23.30;;;;;;;2.01;67.35;100105.50;112837;1241;23684;-74
2023/03/04 06:22:43;;;;;;;32.30;24.90;;;;;;;2.00;67.41;100102.25;112116;1245;23084;-75
2023/03/04 06:25:19;;;;;;;31.70;25.60;;;;;;;2.03;67.47;100100.85;112371;1245;22211;-74
2023/03/04 06:27:51;;;;;;;31.10;25.40;;;;;;;2.08;67.39;100101.34;112121;1245;21983;-76
2023/03/04 06:30:22;;;;;;;31.20;24.10;;;;;;;2.10;67.36;100102.69;111997;1249;23043;-75
2023/03/04 06:32:54;;;;;;;31.00;24.70;;;;;;;2.13;67.34;100101.98;111670;1248;21960;-76
2023/03/04 06:35:24;;;;;;;31.10;23.70;;;;;;;2.16;67.34;100099.23;111947;1241;23607;-76
2023/03/04 06:37:53;;;;;;;30.00;23.30;;;;;;;2.18;67.36;100094.57;112937;1241;21973;-75
2023/03/04 06:40:22;;;;;;;33.70;24.40;;;;;;;2.21;67.31;100096.95;112149;1243;21983;-77
2023/03/04 06:43:09;;;;;;;32.80;25.30;;;;;;;2.23;67.27;100096.94;112160;1245;21959;-75
2023/03/04 06:45:44;;;;;;;28.90;23.00;;;;;;;2.24;67.31;100095.71;112112;1245;21972;-75
2023/03/04 06:48:18;;;;;;;26.70;22.80;;;;;;;2.25;67.31;100098.28;112167;1239;23681;-74
2023/03/04 06:50:57;;;;;;;30.20;22.30;;;;;;;2.30;67.51;100101.67;112272;1244;24867;-75
2023/03/04 06:53:28;;;;;;;30.80;22.60;;;;;;;2.38;67.45;100101.11;111978;1244;23620;-76
2023/03/04 06:56:00;;;;;;;31.50;23.10;;;;;;;2.48;67.67;100103.09;112342;1244;21949;-74
2023/03/04 06:58:34;;;;;;;30.00;24.00;;;;;;;2.59;67.47;100107.11;112506;1238;23593;-75
2023/03/04 07:01:14;;;;;;;28.90;22.90;;;;;;;2.66;67.47;100106.18;112998;1238;21945;-75
2023/03/04 07:03:46;;;;;;;28.70;23.90;;;;;;;2.79;67.62;100106.23;113130;1238;23699;-74
2023/03/04 07:06:19;;;;;;;32.20;23.90;;;;;;;2.88;67.30;100113.37;112749;1242;22156;-75
2023/03/04 07:08:48;;;;;;;35.60;23.40;;;;;;;2.89;66.82;100111.29;112502;1239;21952;-75
2023/03/04 07:11:23;;;;;;;29.50;23.70;;;;;;;2.86;66.61;100114.76;112167;1245;21964;-75
2023/03/04 07:14:07;;;;;;;30.40;22.10;;;;;;;2.85;66.73;100110.30;112227;1245;23702;-75
2023/03/04 07:16:39;;;;;;;33.70;24.10;;;;;;;2.87;66.60;100111.66;112041;1245;21968;-77
2023/03/04 07:19:11;;;;;;;40.90;26.40;;;;;;;2.89;66.62;100108.36;111950;1245;23712;-77
2023/03/04 07:21:48;;;;;;;31.00;23.50;;;;;;;2.96;66.50;100101.08;112053;1245;22970;-76
2023/03/04 07:24:24;;;;;;;34.00;22.90;;;;;;;2.99;66.42;100094.70;112093;1245;23731;-75
2023/03/04 07:26:55;;;;;;;35.10;24.40;;;;;;;3.03;66.40;100092.75;112034;1245;21980;-76
2023/03/04 07:29:30;;;;;;;35.20;23.50;;;;;;;3.03;66.18;100088.97;111801;1245;22077;-76
2023/03/04 07:32:11;;;;;;;37.80;24.10;;;;;;;3.08;66.23;100081.17;112796;1239;21948;-75
2023/03/04 07:34:47;;;;;;;33.60;22.60;;;;;;;3.14;66.04;100085.41;112929;1239;22446;-76
2023/03/04 07:37:16;;;;;;;32.90;23.20;;;;;;;3.14;65.77;100089.00;112423;1239;22827;-76
2023/03/04 07:39:47;;;;;;;33.10;23.50;;;;;;;3.12;65.68;100086.97;112754;1239;24412;-76
2023/03/04 07:42:27;;;;;;;30.30;21.60;;;;;;;3.10;65.70;100081.66;112810;1239;22341;-75
2023/03/04 07:45:00;;;;;;;29.00;18.50;;;;;;;3.10;65.81;100082.88;112854;1239;21942;-77
2023/03/04 07:47:29;;;;;;;27.20;20.80;;;;;;;3.10;65.65;100075.66;113120;1239;22159;-75
2023/03/04 07:49:58;;;;;;;31.90;19.80;;;;;;;3.12;65.54;100078.04;112561;1239;21954;-75
2023/03/04 07:52:27;;;;;;;38.10;26.00;;;;;;;3.13;65.40;100075.79;113043;1239;21949;-75
2023/03/04 07:54:56;;;;;;;28.60;23.10;;;;;;;3.15;65.49;100077.48;113163;1233;23292;-75
2023/03/04 07:57:25;;;;;;;29.70;19.40;;;;;;;3.18;65.65;100076.23;113458;1233;21949;-74
2023/03/04 07:59:53;;;;;;;25.20;16.10;;;;;;;3.22;65.66;100075.69;113603;1233;23705;-74
2023/03/04 08:02:26;;;;;;;26.00;18.50;;;;;;;3.25;65.64;100075.30;113504;1233;21935;-75
2023/03/04 08:04:55;;;;;;;28.80;21.40;;;;;;;3.28;65.67;100072.50;113589;1233;21952;-75
2023/03/04 08:07:24;;;;;;;37.40;25.60;;;;;;;3.32;65.71;100072.80;113385;1233;22640;-74
2023/03/04 08:09:52;;;;;;;34.10;28.00;;;;;;;3.33;65.67;100072.11;112974;1240;23726;-75
2023/03/04 08:12:28;;;;;;;38.60;28.70;;;;;;;3.35;65.65;100072.95;112590;1241;23620;-76
2023/03/04 08:14:57;;;;;;;28.80;21.70;;;;;;;3.36;65.62;100069.66;112784;1233;22038;-75
2023/03/04 08:17:28;;;;;;;32.00;21.40;;;;;;;3.38;65.70;100063.45;112809;1241;23733;-75
2023/03/04 08:19:57;;;;;;;28.70;19.50;;;;;;;3.40;65.50;100062.38;112726;1241;22399;-76
2023/03/04 08:22:26;;;;;;;29.30;20.10;;;;;;;3.43;65.51;100068.53;112735;1241;23702;-76
2023/03/04 08:24:57;;;;;;;35.30;21.60;;;;;;;3.46;65.55;100071.41;112271;1246;23062;-75
2023/03/04 08:27:26;;;;;;;26.50;21.30;;;;;;;3.49;65.64;100064.50;112132;1240;23343;-76
2023/03/04 08:29:55;;;;;;;29.70;20.90;;;;;;;3.51;65.54;100066.54;112769;1240;21974;-75
2023/03/04 08:32:28;;;;;;;31.60;22.00;;;;;;;3.52;65.49;100064.46;112723;1239;23035;-75
2023/03/04 08:35:01;;;;;;;28.70;20.70;;;;;;;3.52;65.56;100062.05;112763;1240;22463;-74
2023/03/04 08:37:32;;;;;;;34.40;24.50;;;;;;;3.55;65.72;100064.42;112088;1244;23011;-75
2023/03/04 08:40:07;;;;;;;33.60;23.00;;;;;;;3.57;65.79;100059.92;112357;1244;22114;-77
2023/03/04 08:42:39;;;;;;;32.20;22.90;;;;;;;3.59;65.91;100062.48;112194;1239;22962;-76
2023/03/04 08:45:17;;;;;;;29.90;21.20;;;;;;;3.62;66.00;100060.71;112437;1239;21979;-75
2023/03/04 08:47:50;;;;;;;31.10;19.30;;;;;;;3.64;66.06;100064.11;112940;1239;22649;-76
2023/03/04 08:50:32;;;;;;;33.40;20.70;;;;;;;3.72;66.36;100061.96;112833;1239;23586;-75
2023/03/04 08:53:03;;;;;;;29.10;18.60;;;;;;;3.76;66.19;100060.17;112592;1239;22027;-75
2023/03/04 08:55:40;;;;;;;31.00;18.60;;;;;;;3.73;65.99;100058.31;113227;1233;22768;-76
2023/03/04 08:58:12;;;;;;;30.20;19.50;;;;;;;3.74;66.15;100061.58;113662;1233;21971;-79
2023/03/04 09:00:50;;;;;;;31.10;20.50;;;;;;;3.77;66.25;100057.92;113662;1232;21950;-78
2023/03/04 09:03:23;;;;;;;31.60;22.10;;;;;;;3.89;66.76;100054.29;112979;1239;22966;-74
2023/03/04 09:05:53;;;;;;;31.40;20.70;;;;;;;3.99;66.81;100050.53;112843;1239;21958;-76
2023/03/04 09:08:25;;;;;;;32.40;20.90;;;;;;;4.09;66.80;100054.50;113079;1239;21999;-75
2023/03/04 09:10:57;;;;;;;33.50;20.00;;;;;;;4.13;66.36;100052.02;112354;1245;23050;-77
2023/03/04 09:13:32;;;;;;;36.50;22.90;;;;;;;4.11;66.10;100053.97;112109;1245;21979;-78
2023/03/04 09:16:02;;;;;;;29.60;19.00;;;;;;;4.10;66.10;100055.71;112108;1245;22173;-76
2023/03/04 09:18:35;;;;;;;25.10;17.50;;;;;;;4.06;66.07;100052.31;112341;1245;22022;-77
2023/03/04 09:21:07;;;;;;;26.30;17.70;;;;;;;4.08;66.16;100052.45;112293;1239;21972;-76
2023/03/04 09:23:37;;;;;;;24.40;16.10;;;;;;;4.06;66.06;100051.10;112752;1239;22073;-76
2023/03/04 09:26:32;;;;;;;28.10;17.40;;;;;;;4.10;66.28;100052.25;112939;1239;21951;-77
2023/03/04 09:29:03;;;;;;;26.60;16.90;;;;;;;4.13;66.21;100050.48;113056;1233;21940;-77
2023/03/04 09:31:37;;;;;;;25.60;14.80;;;;;;;4.12;65.97;100050.50;113518;1233;21954;-75
2023/03/04 09:34:07;;;;;;;27.00;15.50;;;;;;;4.11;65.95;100046.71;113376;1233;22020;-74
2023/03/04 09:36:37;;;;;;;28.80;18.20;;;;;;;4.12;66.10;100046.37;113487;1233;24317;-75
2023/03/04 09:39:13;;;;;;;24.80;16.10;;;;;;;4.13;66.09;100044.98;112964;1238;22946;-74
2023/03/04 09:41:57;;;;;;;26.60;14.80;;;;;;;4.13;66.02;100041.52;112860;1239;21944;-75
2023/03/04 09:44:41;;;;;;;26.50;17.60;;;;;;;4.15;66.17;100033.92;112876;1238;23040;-74
2023/03/04 09:47:19;;;;;;;32.90;18.00;;;;;;;4.21;66.46;100029.85;112887;1238;22019;-75
2023/03/04 09:49:57;;;;;;;27.20;17.20;;;;;;;4.31;66.45;100028.31;112445;1244;23594;-74
2023/03/04 09:53:11;;;;;;;27.50;16.60;;;;;;;4.39;66.38;100024.55;112132;1244;21968;-76
2023/03/04 09:55:51;;;;;;;26.10;18.30;;;;;;;4.41;66.08;100021.58;112285;1244;21962;-78
2023/03/04 09:58:54;;;;;;;39.40;22.10;;;;;;;4.38;65.73;100016.30;112913;1239;23581;-76
2023/03/04 10:01:55;;;;;;;26.90;18.00;;;;;;;4.30;65.70;100013.16;113449;1239;21969;-76
2023/03/04 10:04:53;;;;;;;27.80;16.80;;;;;;;4.28;65.78;100013.35;113091;1239;21987;-77
2023/03/04 10:07:32;;;;;;;28.00;20.10;;;;;;;4.25;65.85;100013.24;112949;1233;21941;-74
2023/03/04 10:10:18;;;;;;;30.80;16.30;;;;;;;4.23;65.91;100013.98;113333;1233;21942;-77
2023/03/04 10:12:57;;;;;;;22.70;16.20;;;;;;;4.19;65.95;100013.52;113269;1226;21940;-75
2023/03/04 10:15:39;;;;;;;22.20;15.90;;;;;;;4.20;66.21;100013.86;113306;1233;21920;-76
2023/03/04 10:18:34;;;;;;;21.90;15.40;;;;;;;4.23;66.24;100011.91;112773;1239;21956;-76
2023/03/04 10:21:28;;;;;;;25.50;18.30;;;;;;;4.24;66.54;100013.77;113092;1239;21945;-74
2023/03/04 10:24:04;;;;;;;25.40;17.30;;;;;;;4.29;66.64;100014.56;112565;1242;22002;-75
2023/03/04 10:26:37;;;;;;;22.60;14.30;;;;;;;4.35;66.67;100012.05;112608;1242;22416;-78
2023/03/04 10:29:17;;;;;;;240.40;213.10;;;;;;;4.40;66.79;100015.05;111986;1249;23694;-78
2023/03/04 10:31:48;;;;;;;33.30;26.60;;;;;;;4.53;67.07;100012.41;111794;1248;21970;-77
2023/03/04 10:34:22;;;;;;;56.60;43.00;;;;;;;4.63;66.94;100008.08;111920;1248;21995;-77
2023/03/04 10:37:08;;;;;;;31.00;19.80;;;;;;;4.71;66.79;100010.52;111370;1254;21966;-75
2023/03/04 10:39:43;;;;;;;25.90;18.00;;;;;;;4.74;66.80;100012.36;111444;1254;21982;-77
2023/03/04 10:42:15;;;;;;;22.70;14.60;;;;;;;4.72;66.46;100008.60;111750;1245;21986;-77
2023/03/04 10:44:54;;;;;;;22.00;13.60;;;;;;;4.67;66.65;100002.14;112252;1245;22035;-76
2023/03/04 10:47:30;;;;;;;26.80;15.60;;;;;;;4.61;66.58;100006.56;112725;1239;23601;-75
2023/03/04 10:50:27;;;;;;;24.40;16.40;;;;;;;4.57;66.79;100004.40;112905;1239;23695;-75
2023/03/04 10:53:05;;;;;;;25.10;17.40;;;;;;;4.54;67.10;100002.40;112518;1242;21998;-76
2023/03/04 10:55:47;;;;;;;20.80;14.80;;;;;;;4.59;67.39;99997.98;112812;1237;23004;-76
2023/03/04 10:58:18;;;;;;;21.30;14.90;;;;;;;4.66;67.47;99993.73;113214;1237;23678;-76
2023/03/04 11:01:04;;;;;;;24.40;15.80;;;;;;;4.69;67.54;99994.34;112988;1237;23038;-76
2023/03/04 11:03:38;;;;;;;21.00;14.90;;;;;;;4.73;67.62;99993.25;113160;1237;23019;-74
2023/03/04 11:06:23;;;;;;;22.00;14.40;;;;;;;4.76;67.68;99990.94;113036;1237;21994;-76
2023/03/04 11:08:58;;;;;;;19.60;15.00;;;;;;;4.80;67.64;99984.82;112498;1243;22722;-76
2023/03/04 11:11:41;;;;;;;20.40;14.90;;;;;;;4.82;67.66;99981.00;111882;1248;22025;-75
2023/03/04 11:14:40;;;;;;;23.40;14.10;;;;;;;4.90;68.07;99975.85;112001;1248;23801;-76
2023/03/04 11:17:31;;;;;;;19.20;14.60;;;;;;;5.01;68.15;99974.23;111988;1247;21969;-80
2023/03/04 11:20:28;;;;;;;19.70;13.90;;;;;;;5.05;67.88;99970.70;111908;1248;22315;-76
2023/03/04 11:23:16;;;;;;;28.20;22.40;;;;;;;5.06;67.85;99969.62;112103;1244;21950;-73
2023/03/04 11:26:05;;;;;;;18.90;13.60;;;;;;;5.07;67.88;99974.11;112115;1244;21971;-77
2023/03/04 11:29:13;;;;;;;16.00;12.90;;;;;;;5.08;67.83;99974.08;112533;1243;21959;-78
2023/03/04 11:32:02;;;;;;;17.40;12.40;;;;;;;5.07;67.68;99972.04;112542;1244;22288;-78
2023/03/04 11:35:29;;;;;;;17.90;12.80;;;;;;;5.00;67.54;99970.10;113203;1239;22483;-77
2023/03/04 11:38:45;;;;;;;16.70;11.80;;;;;;;4.93;67.75;99963.17;112705;1240;22081;-77
2023/03/04 11:41:31;;;;;;;16.60;11.90;;;;;;;4.92;67.93;99958.73;112778;1240;21942;-78
2023/03/04 11:44:13;;;;;;;14.60;12.50;;;;;;;4.92;67.91;99957.02;112952;1241;21953;-75
2023/03/04 11:47:08;;;;;;;20.60;13.60;;;;;;;4.94;68.24;99952.99;113021;1240;21938;-76
2023/03/04 11:50:15;;;;;;;17.80;12.40;;;;;;;5.03;68.50;99952.80;112712;1240;22350;-77
2023/03/04 11:53:31;;;;;;;22.90;14.20;;;;;;;5.12;68.53;99948.98;112704;1239;21988;-75